sensor_id;sensor_type;location;lat;lon;timestamp;pressure;altitude;pressure_sealevel;temperature;humidity
54329;BME280;40710;51.120;13.136;2023-09-12T00:01:13;99078.44;;;21.37;55.59
54329;BME280;40710;51.120;13.136;2023-09-12T00:03:38;99073.75;;;21.57;55.41
54329;BME280;40710;51.120;13.136;2023-09-12T00:06:02;99081.16;;;21.45;55.49
54329;BME280;40710;51.120;13.136;2023-09-12T00:08:28;99095.63;;;21.08;55.97
54329;BME280;40710;51.120;13.136;2023-09-12T00:11:04;99094.28;;;20.86;56.58
54329;BME280;40710;51.120;13.136;2023-09-12T00:13:30;99091.06;;;20.82;57.18
54329;BME280;40710;51.120;13.136;2023-09-12T00:15:55;99073.59;;;21.32;55.43
54329;BME280;40710;51.120;13.136;2023-09-12T00:18:19;99084.56;;;20.49;57.48
54329;BME280;40710;51.120;13.136;2023-09-12T00:20:44;99079.78;;;20.88;56.63
54329;BME280;40710;51.120;13.136;2023-09-12T00:23:08;99082.38;;;20.80;56.70
54329;BME280;40710;51.120;13.136;2023-09-12T00:25:33;99074.78;;;21.38;55.82
54329;BME280;40710;51.120;13.136;2023-09-12T00:27:58;99084.28;;;21.32;55.15
54329;BME280;40710;51.120;13.136;2023-09-12T00:30:22;99077.97;;;21.15;55.40
54329;BME280;40710;51.120;13.136;2023-09-12T00:32:47;99082.50;;;20.96;55.95
54329;BME280;40710;51.120;13.136;2023-09-12T00:35:11;99085.56;;;20.48;57.30
54329;BME280;40710;51.120;13.136;2023-09-12T00:37:36;99079.31;;;21.19;55.88
54329;BME280;40710;51.120;13.136;2023-09-12T00:40:00;99084.50;;;20.94;56.51
54329;BME280;40710;51.120;13.136;2023-09-12T00:42:25;99068.78;;;21.44;55.16
54329;BME280;40710;51.120;13.136;2023-09-12T00:44:50;99080.53;;;20.99;55.88
54329;BME280;40710;51.120;13.136;2023-09-12T00:47:15;99073.59;;;21.40;54.87
54329;BME280;40710;51.120;13.136;2023-09-12T00:49:40;99069.66;;;21.18;55.87
54329;BME280;40710;51.120;13.136;2023-09-12T00:52:06;99076.63;;;21.11;55.97
54329;BME280;40710;51.120;13.136;2023-09-12T00:54:31;99082.84;;;20.93;55.97
54329;BME280;40710;51.120;13.136;2023-09-12T00:56:55;99080.13;;;20.39;57.92
54329;BME280;40710;51.120;13.136;2023-09-12T00:59:20;99085.28;;;20.69;56.98
54329;BME280;40710;51.120;13.136;2023-09-12T01:01:45;99074.66;;;21.21;55.65
54329;BME280;40710;51.120;13.136;2023-09-12T01:04:11;99080.00;;;21.21;55.60
54329;BME280;40710;51.120;13.136;2023-09-12T01:06:36;99074.13;;;21.18;55.28
54329;BME280;40710;51.120;13.136;2023-09-12T01:09:01;99079.69;;;21.24;55.34
54329;BME280;40710;51.120;13.136;2023-09-12T01:11:26;99076.38;;;21.48;54.48
54329;BME280;40710;51.120;13.136;2023-09-12T01:13:51;99063.59;;;21.68;53.88
54329;BME280;40710;51.120;13.136;2023-09-12T01:16:16;99078.34;;;21.73;54.08
54329;BME280;40710;51.120;13.136;2023-09-12T01:18:41;99071.38;;;21.53;54.18
54329;BME280;40710;51.120;13.136;2023-09-12T01:29:06;99067.19;;;20.99;56.56
54329;BME280;40710;51.120;13.136;2023-09-12T01:31:32;99067.75;;;21.10;55.71
54329;BME280;40710;51.120;13.136;2023-09-12T01:34:11;99076.97;;;20.90;56.40
54329;BME280;40710;51.120;13.136;2023-09-12T01:36:36;99076.63;;;20.93;56.19
54329;BME280;40710;51.120;13.136;2023-09-12T01:39:00;99079.47;;;21.18;55.58
54329;BME280;40710;51.120;13.136;2023-09-12T01:41:26;99078.09;;;20.87;56.73
54329;BME280;40710;51.120;13.136;2023-09-12T01:43:52;99093.16;;;20.25;58.42
54329;BME280;40710;51.120;13.136;2023-09-12T01:46:18;99092.28;;;20.34;57.93
54329;BME280;40710;51.120;13.136;2023-09-12T01:48:46;99097.41;;;20.17;58.59
54329;BME280;40710;51.120;13.136;2023-09-12T01:51:15;99089.94;;;20.21;58.44
54329;BME280;40710;51.120;13.136;2023-09-12T01:53:41;99088.97;;;20.58;58.17
54329;BME280;40710;51.120;13.136;2023-09-12T01:56:08;99087.75;;;20.52;57.44
54329;BME280;40710;51.120;13.136;2023-09-12T01:58:33;99096.81;;;20.24;58.50
54329;BME280;40710;51.120;13.136;2023-09-12T02:00:59;99086.41;;;20.30;58.63
54329;BME280;40710;51.120;13.136;2023-09-12T02:03:24;99081.25;;;20.37;58.48
54329;BME280;40710;51.120;13.136;2023-09-12T02:05:48;99090.69;;;20.13;59.10
54329;BME280;40710;51.120;13.136;2023-09-12T02:08:13;99081.50;;;20.44;58.55
54329;BME280;40710;51.120;13.136;2023-09-12T02:10:37;99083.66;;;20.12;58.95
54329;BME280;40710;51.120;13.136;2023-09-12T02:13:02;99083.59;;;20.04;59.53
54329;BME280;40710;51.120;13.136;2023-09-12T02:15:26;99078.81;;;20.26;58.29
54329;BME280;40710;51.120;13.136;2023-09-12T02:17:52;99074.72;;;20.49;58.42
54329;BME280;40710;51.120;13.136;2023-09-12T02:20:16;99076.91;;;20.18;58.61
54329;BME280;40710;51.120;13.136;2023-09-12T02:22:41;99079.59;;;20.36;58.55
54329;BME280;40710;51.120;13.136;2023-09-12T02:25:06;99082.84;;;19.84;59.60
54329;BME280;40710;51.120;13.136;2023-09-12T02:27:31;99088.94;;;20.04;59.41
54329;BME280;40710;51.120;13.136;2023-09-12T02:29:55;99087.06;;;19.87;60.24
54329;BME280;40710;51.120;13.136;2023-09-12T02:32:20;99091.72;;;19.85;59.98
54329;BME280;40710;51.120;13.136;2023-09-12T02:34:44;99083.47;;;20.06;59.57
54329;BME280;40710;51.120;13.136;2023-09-12T02:37:09;99078.34;;;20.12;59.07
54329;BME280;40710;51.120;13.136;2023-09-12T02:39:33;99078.03;;;20.15;58.51
54329;BME280;40710;51.120;13.136;2023-09-12T02:41:58;99069.66;;;20.28;58.56
54329;BME280;40710;51.120;13.136;2023-09-12T02:44:22;99076.69;;;20.47;57.70
54329;BME280;40710;51.120;13.136;2023-09-12T02:46:47;99073.50;;;20.26;58.25
54329;BME280;40710;51.120;13.136;2023-09-12T02:49:13;99076.66;;;19.93;59.69
54329;BME280;40710;51.120;13.136;2023-09-12T02:51:40;99074.97;;;20.10;59.22
54329;BME280;40710;51.120;13.136;2023-09-12T02:54:05;99073.25;;;20.37;58.49
54329;BME280;40710;51.120;13.136;2023-09-12T02:56:30;99073.06;;;20.84;57.14
54329;BME280;40710;51.120;13.136;2023-09-12T02:58:55;99078.13;;;20.69;57.81
54329;BME280;40710;51.120;13.136;2023-09-12T03:01:20;99076.81;;;20.73;57.47
54329;BME280;40710;51.120;13.136;2023-09-12T03:03:48;99077.31;;;20.41;58.52
54329;BME280;40710;51.120;13.136;2023-09-12T03:06:14;99080.13;;;20.39;58.10
54329;BME280;40710;51.120;13.136;2023-09-12T03:08:39;99072.56;;;19.89;59.63
54329;BME280;40710;51.120;13.136;2023-09-12T03:11:03;99066.69;;;20.31;58.91
54329;BME280;40710;51.120;13.136;2023-09-12T03:13:28;99065.88;;;20.31;58.29
54329;BME280;40710;51.120;13.136;2023-09-12T03:15:53;99068.41;;;19.87;59.91
54329;BME280;40710;51.120;13.136;2023-09-12T03:18:17;99062.47;;;20.11;59.69
54329;BME280;40710;51.120;13.136;2023-09-12T03:20:42;99061.06;;;20.16;59.21
54329;BME280;40710;51.120;13.136;2023-09-12T03:23:06;99052.00;;;20.27;58.45
54329;BME280;40710;51.120;13.136;2023-09-12T03:25:35;99054.97;;;20.60;57.82
54329;BME280;40710;51.120;13.136;2023-09-12T03:28:00;99045.41;;;20.67;57.34
54329;BME280;40710;51.120;13.136;2023-09-12T03:30:25;99047.44;;;20.37;58.54
54329;BME280;40710;51.120;13.136;2023-09-12T03:32:49;99045.00;;;20.62;57.60
54329;BME280;40710;51.120;13.136;2023-09-12T03:35:14;99044.78;;;19.92;59.13
54329;BME280;40710;51.120;13.136;2023-09-12T03:37:38;99056.22;;;20.02;59.11
54329;BME280;40710;51.120;13.136;2023-09-12T03:40:07;99058.44;;;19.79;60.19
54329;BME280;40710;51.120;13.136;2023-09-12T03:42:32;99061.66;;;19.82;59.47
54329;BME280;40710;51.120;13.136;2023-09-12T03:44:56;99057.47;;;19.80;59.89
54329;BME280;40710;51.120;13.136;2023-09-12T03:47:21;99059.75;;;19.65;60.43
54329;BME280;40710;51.120;13.136;2023-09-12T03:49:45;99058.81;;;19.94;59.48
54329;BME280;40710;51.120;13.136;2023-09-12T03:52:10;99057.78;;;20.23;58.85
54329;BME280;40710;51.120;13.136;2023-09-12T03:54:34;99061.22;;;20.15;58.72
54329;BME280;40710;51.120;13.136;2023-09-12T03:56:59;99064.72;;;20.15;59.14
54329;BME280;40710;51.120;13.136;2023-09-12T03:59:23;99068.19;;;20.16;59.00
54329;BME280;40710;51.120;13.136;2023-09-12T04:01:48;99065.47;;;20.26;59.06
54329;BME280;40710;51.120;13.136;2023-09-12T04:04:12;99054.88;;;20.88;56.98
54329;BME280;40710;51.120;13.136;2023-09-12T04:06:37;99063.81;;;20.61;57.92
54329;BME280;40710;51.120;13.136;2023-09-12T04:09:01;99067.19;;;19.99;59.27
54329;BME280;40710;51.120;13.136;2023-09-12T04:11:26;99068.69;;;20.11;58.97
54329;BME280;40710;51.120;13.136;2023-09-12T04:13:50;99061.94;;;20.07;59.32
54329;BME280;40710;51.120;13.136;2023-09-12T04:16:15;99060.25;;;20.34;58.42
54329;BME280;40710;51.120;13.136;2023-09-12T04:18:39;99078.94;;;19.31;61.67
54329;BME280;40710;51.120;13.136;2023-09-12T04:21:04;99068.75;;;19.64;59.92
54329;BME280;40710;51.120;13.136;2023-09-12T04:23:28;99066.38;;;19.51;60.84
54329;BME280;40710;51.120;13.136;2023-09-12T04:25:53;99064.94;;;20.04;59.14
54329;BME280;40710;51.120;13.136;2023-09-12T04:28:17;99058.50;;;19.97;59.77
54329;BME280;40710;51.120;13.136;2023-09-12T04:30:42;99060.00;;;19.72;60.66
54329;BME280;40710;51.120;13.136;2023-09-12T04:33:07;99059.59;;;19.76;60.45
54329;BME280;40710;51.120;13.136;2023-09-12T04:35:34;99053.44;;;19.66;60.72
54329;BME280;40710;51.120;13.136;2023-09-12T04:37:59;99052.28;;;20.06;58.58
54329;BME280;40710;51.120;13.136;2023-09-12T04:40:23;99060.09;;;19.52;60.39
54329;BME280;40710;51.120;13.136;2023-09-12T04:42:48;99062.97;;;19.21;61.79
54329;BME280;40710;51.120;13.136;2023-09-12T04:45:12;99058.91;;;19.27;61.97
54329;BME280;40710;51.120;13.136;2023-09-12T04:47:37;99048.19;;;19.46;60.85
54329;BME280;40710;51.120;13.136;2023-09-12T04:50:02;99053.72;;;19.63;60.98
54329;BME280;40710;51.120;13.136;2023-09-12T04:52:26;99049.16;;;19.45;60.56
54329;BME280;40710;51.120;13.136;2023-09-12T04:54:51;99045.81;;;19.81;59.62
54329;BME280;40710;51.120;13.136;2023-09-12T04:57:15;99050.66;;;19.58;60.46
54329;BME280;40710;51.120;13.136;2023-09-12T04:59:40;99045.47;;;19.94;59.53
54329;BME280;40710;51.120;13.136;2023-09-12T05:02:04;99047.19;;;19.48;60.22
54329;BME280;40710;51.120;13.136;2023-09-12T05:04:29;99057.13;;;18.98;62.51
54329;BME280;40710;51.120;13.136;2023-09-12T05:06:53;99055.44;;;19.17;62.14
54329;BME280;40710;51.120;13.136;2023-09-12T05:09:18;99037.16;;;19.69;60.17
54329;BME280;40710;51.120;13.136;2023-09-12T05:11:42;99046.34;;;19.57;60.45
54329;BME280;40710;51.120;13.136;2023-09-12T05:14:08;99049.84;;;19.48;60.80
54329;BME280;40710;51.120;13.136;2023-09-12T05:16:33;99058.78;;;19.29;61.41
54329;BME280;40710;51.120;13.136;2023-09-12T05:18:58;99049.97;;;19.56;61.18
54329;BME280;40710;51.120;13.136;2023-09-12T05:21:22;99053.28;;;19.68;60.11
54329;BME280;40710;51.120;13.136;2023-09-12T05:23:47;99052.63;;;19.56;59.83
54329;BME280;40710;51.120;13.136;2023-09-12T05:26:11;99064.03;;;19.48;61.10
54329;BME280;40710;51.120;13.136;2023-09-12T05:28:36;99069.16;;;19.69;60.44
54329;BME280;40710;51.120;13.136;2023-09-12T05:31:00;99074.69;;;19.86;59.73
54329;BME280;40710;51.120;13.136;2023-09-12T05:33:25;99059.75;;;19.75;59.87
54329;BME280;40710;51.120;13.136;2023-09-12T05:35:49;99070.66;;;19.81;59.90
54329;BME280;40710;51.120;13.136;2023-09-12T05:38:14;99068.09;;;19.52;60.38
54329;BME280;40710;51.120;13.136;2023-09-12T05:40:38;99070.13;;;20.24;58.82
54329;BME280;40710;51.120;13.136;2023-09-12T05:43:03;99075.28;;;20.07;59.56
54329;BME280;40710;51.120;13.136;2023-09-12T05:45:28;99074.75;;;20.03;59.14
54329;BME280;40710;51.120;13.136;2023-09-12T05:47:55;99070.38;;;20.48;58.11
54329;BME280;40710;51.120;13.136;2023-09-12T05:50:19;99080.56;;;20.17;58.18
54329;BME280;40710;51.120;13.136;2023-09-12T05:52:44;99073.34;;;20.45;57.83
54329;BME280;40710;51.120;13.136;2023-09-12T05:55:08;99075.88;;;20.29;58.52
54329;BME280;40710;51.120;13.136;2023-09-12T05:57:33;99082.00;;;20.75;56.94
54329;BME280;40710;51.120;13.136;2023-09-12T05:59:57;99089.53;;;20.98;57.00
54329;BME280;40710;51.120;13.136;2023-09-12T06:02:24;99085.34;;;20.77;56.78
54329;BME280;40710;51.120;13.136;2023-09-12T06:04:48;99093.88;;;20.81;57.27
54329;BME280;40710;51.120;13.136;2023-09-12T06:07:13;99087.03;;;20.78;57.11
54329;BME280;40710;51.120;13.136;2023-09-12T06:09:37;99091.22;;;20.99;56.35
54329;BME280;40710;51.120;13.136;2023-09-12T06:12:02;99078.38;;;22.32;53.45
54329;BME280;40710;51.120;13.136;2023-09-12T06:14:27;99080.78;;;22.59;52.45
54329;BME280;40710;51.120;13.136;2023-09-12T06:16:51;99076.94;;;22.78;52.26
54329;BME280;40710;51.120;13.136;2023-09-12T06:19:16;99088.03;;;22.24;53.63
54329;BME280;40710;51.120;13.136;2023-09-12T06:21:41;99093.38;;;21.74;55.12
54329;BME280;40710;51.120;13.136;2023-09-12T06:24:15;99090.13;;;21.88;54.48
54329;BME280;40710;51.120;13.136;2023-09-12T06:26:40;99100.84;;;21.36;56.14
54329;BME280;40710;51.120;13.136;2023-09-12T06:29:05;99092.78;;;21.88;55.46
54329;BME280;40710;51.120;13.136;2023-09-12T06:31:31;99091.31;;;22.53;53.31
54329;BME280;40710;51.120;13.136;2023-09-12T06:33:56;99083.47;;;22.84;52.56
54329;BME280;40710;51.120;13.136;2023-09-12T06:36:21;99091.16;;;22.79;52.92
54329;BME280;40710;51.120;13.136;2023-09-12T06:38:45;99088.47;;;22.79;52.75
54329;BME280;40710;51.120;13.136;2023-09-12T06:41:10;99081.91;;;23.47;51.31
54329;BME280;40710;51.120;13.136;2023-09-12T06:43:34;99075.31;;;23.66;50.58
54329;BME280;40710;51.120;13.136;2023-09-12T06:45:59;99078.88;;;23.67;50.99
54329;BME280;40710;51.120;13.136;2023-09-12T06:48:24;99074.84;;;23.63;51.30
54329;BME280;40710;51.120;13.136;2023-09-12T06:50:49;99073.31;;;23.68;51.70
54329;BME280;40710;51.120;13.136;2023-09-12T06:53:14;99071.81;;;23.66;51.45
54329;BME280;40710;51.120;13.136;2023-09-12T06:55:39;99076.59;;;24.81;49.52
54329;BME280;40710;51.120;13.136;2023-09-12T06:58:04;99069.13;;;25.29;48.27
54329;BME280;40710;51.120;13.136;2023-09-12T07:00:28;99069.47;;;25.26;47.91
54329;BME280;40710;51.120;13.136;2023-09-12T07:02:53;99066.91;;;25.62;47.36
54329;BME280;40710;51.120;13.136;2023-09-12T07:05:17;99076.09;;;25.00;48.69
54329;BME280;40710;51.120;13.136;2023-09-12T07:07:42;99072.19;;;26.00;46.17
54329;BME280;40710;51.120;13.136;2023-09-12T07:10:07;99073.19;;;26.14;45.82
54329;BME280;40710;51.120;13.136;2023-09-12T07:12:31;99083.09;;;26.29;45.45
54329;BME280;40710;51.120;13.136;2023-09-12T07:14:57;99068.28;;;26.39;45.84
54329;BME280;40710;51.120;13.136;2023-09-12T07:17:22;99069.25;;;26.32;46.00
54329;BME280;40710;51.120;13.136;2023-09-12T07:19:46;99068.41;;;27.24;44.38
54329;BME280;40710;51.120;13.136;2023-09-12T07:22:11;99075.06;;;27.50;43.92
54329;BME280;40710;51.120;13.136;2023-09-12T07:24:35;99056.34;;;28.45;42.37
54329;BME280;40710;51.120;13.136;2023-09-12T07:27:00;99047.19;;;30.57;38.92
54329;BME280;40710;51.120;13.136;2023-09-12T07:29:24;99042.81;;;33.96;32.50
54329;BME280;40710;51.120;13.136;2023-09-12T07:31:52;99050.66;;;33.92;32.22
54329;BME280;40710;51.120;13.136;2023-09-12T07:34:17;99050.53;;;34.27;31.74
54329;BME280;40710;51.120;13.136;2023-09-12T07:36:42;99060.00;;;34.54;31.58
54329;BME280;40710;51.120;13.136;2023-09-12T07:39:06;99055.53;;;33.78;32.49
54329;BME280;40710;51.120;13.136;2023-09-12T07:41:31;99070.47;;;32.02;35.63
54329;BME280;40710;51.120;13.136;2023-09-12T07:43:55;99078.13;;;31.31;37.58
54329;BME280;40710;51.120;13.136;2023-09-12T07:46:20;99073.88;;;30.60;38.70
54329;BME280;40710;51.120;13.136;2023-09-12T07:48:45;99078.75;;;30.51;38.87
54329;BME280;40710;51.120;13.136;2023-09-12T07:51:16;99074.69;;;30.92;38.46
54329;BME280;40710;51.120;13.136;2023-09-12T07:53:42;99074.03;;;31.22;38.35
54329;BME280;40710;51.120;13.136;2023-09-12T07:56:08;99065.94;;;31.96;36.41
54329;BME280;40710;51.120;13.136;2023-09-12T07:58:33;99065.63;;;32.04;36.38
54329;BME280;40710;51.120;13.136;2023-09-12T08:00:57;99063.59;;;32.48;35.76
54329;BME280;40710;51.120;13.136;2023-09-12T08:03:22;99064.78;;;32.10;35.78
54329;BME280;40710;51.120;13.136;2023-09-12T08:05:57;99072.38;;;32.01;36.66
54329;BME280;40710;51.120;13.136;2023-09-12T08:08:22;99073.66;;;31.18;37.71
54329;BME280;40710;51.120;13.136;2023-09-12T08:10:47;99067.72;;;31.03;37.81
54329;BME280;40710;51.120;13.136;2023-09-12T08:13:11;99073.25;;;30.96;38.42
54329;BME280;40710;51.120;13.136;2023-09-12T08:15:36;99063.94;;;31.29;37.35
54329;BME280;40710;51.120;13.136;2023-09-12T08:18:00;99062.06;;;31.29;37.24
54329;BME280;40710;51.120;13.136;2023-09-12T08:20:25;99057.91;;;31.71;36.95
54329;BME280;40710;51.120;13.136;2023-09-12T08:22:49;99062.38;;;31.40;37.33
54329;BME280;40710;51.120;13.136;2023-09-12T08:25:14;99051.75;;;31.94;35.17
54329;BME280;40710;51.120;13.136;2023-09-12T08:27:38;99048.09;;;32.07;33.91
54329;BME280;40710;51.120;13.136;2023-09-12T08:30:03;99049.59;;;31.03;34.85
54329;BME280;40710;51.120;13.136;2023-09-12T08:32:28;99049.56;;;31.47;34.71
54329;BME280;40710;51.120;13.136;2023-09-12T08:34:53;99042.09;;;31.98;34.02
54329;BME280;40710;51.120;13.136;2023-09-12T08:37:17;99053.84;;;31.36;34.83
54329;BME280;40710;51.120;13.136;2023-09-12T08:39:44;99048.19;;;31.63;34.89
54329;BME280;40710;51.120;13.136;2023-09-12T08:42:12;99051.34;;;32.57;33.57
54329;BME280;40710;51.120;13.136;2023-09-12T08:44:38;99053.28;;;32.08;33.82
54329;BME280;40710;51.120;13.136;2023-09-12T08:47:04;99044.66;;;32.95;33.05
54329;BME280;40710;51.120;13.136;2023-09-12T08:49:33;99045.19;;;33.16;32.29
54329;BME280;40710;51.120;13.136;2023-09-12T08:51:59;99039.94;;;33.03;32.01
54329;BME280;40710;51.120;13.136;2023-09-12T08:54:23;99047.13;;;32.85;33.17
54329;BME280;40710;51.120;13.136;2023-09-12T08:56:48;99050.66;;;32.62;33.15
54329;BME280;40710;51.120;13.136;2023-09-12T08:59:13;99046.81;;;32.51;33.30
54329;BME280;40710;51.120;13.136;2023-09-12T09:01:38;99044.28;;;32.80;32.28
54329;BME280;40710;51.120;13.136;2023-09-12T09:04:04;99043.75;;;33.25;32.79
54329;BME280;40710;51.120;13.136;2023-09-12T09:06:31;99049.66;;;32.98;33.08
54329;BME280;40710;51.120;13.136;2023-09-12T09:08:57;99050.75;;;33.33;32.58
54329;BME280;40710;51.120;13.136;2023-09-12T09:11:23;99050.38;;;33.41;32.65
54329;BME280;40710;51.120;13.136;2023-09-12T09:13:51;99046.09;;;32.86;32.51
54329;BME280;40710;51.120;13.136;2023-09-12T09:16:17;99038.88;;;32.92;32.31
54329;BME280;40710;51.120;13.136;2023-09-12T09:18:53;99044.00;;;33.24;32.37
54329;BME280;40710;51.120;13.136;2023-09-12T09:21:20;99043.97;;;33.59;31.54
54329;BME280;40710;51.120;13.136;2023-09-12T09:23:47;99039.75;;;33.16;32.42
54329;BME280;40710;51.120;13.136;2023-09-12T09:26:12;99045.53;;;33.20;32.56
54329;BME280;40710;51.120;13.136;2023-09-12T09:28:37;99038.78;;;33.22;32.23
54329;BME280;40710;51.120;13.136;2023-09-12T09:31:03;99043.16;;;33.00;32.22
54329;BME280;40710;51.120;13.136;2023-09-12T09:33:35;99038.41;;;33.19;31.58
54329;BME280;40710;51.120;13.136;2023-09-12T09:36:04;99036.38;;;32.90;32.61
54329;BME280;40710;51.120;13.136;2023-09-12T09:38:29;99030.81;;;33.56;31.79
54329;BME280;40710;51.120;13.136;2023-09-12T09:40:54;99028.81;;;33.40;31.53
54329;BME280;40710;51.120;13.136;2023-09-12T09:43:21;99025.16;;;33.34;32.16
54329;BME280;40710;51.120;13.136;2023-09-12T09:45:46;99011.38;;;34.34;30.75
54329;BME280;40710;51.120;13.136;2023-09-12T09:48:20;99028.31;;;34.07;31.12
54329;BME280;40710;51.120;13.136;2023-09-12T09:50:45;99023.63;;;34.31;30.46
54329;BME280;40710;51.120;13.136;2023-09-12T09:53:09;99034.53;;;34.31;29.93
54329;BME280;40710;51.120;13.136;2023-09-12T09:55:35;99026.72;;;34.69;29.68
54329;BME280;40710;51.120;13.136;2023-09-12T09:57:59;99039.22;;;34.19;30.03
54329;BME280;40710;51.120;13.136;2023-09-12T10:00:25;99040.53;;;34.04;30.42
54329;BME280;40710;51.120;13.136;2023-09-12T10:02:50;99041.47;;;34.39;31.13
54329;BME280;40710;51.120;13.136;2023-09-12T10:05:18;99035.38;;;35.16;29.59
54329;BME280;40710;51.120;13.136;2023-09-12T10:07:47;99044.09;;;34.79;30.62
54329;BME280;40710;51.120;13.136;2023-09-12T10:10:13;99043.19;;;35.08;29.99
54329;BME280;40710;51.120;13.136;2023-09-12T10:12:48;99037.41;;;35.04;29.68
54329;BME280;40710;51.120;13.136;2023-09-12T10:15:14;99038.97;;;35.00;29.91
54329;BME280;40710;51.120;13.136;2023-09-12T10:17:42;99042.41;;;34.44;30.63
54329;BME280;40710;51.120;13.136;2023-09-12T10:20:21;99037.56;;;35.14;29.71
54329;BME280;40710;51.120;13.136;2023-09-12T10:23:11;99038.03;;;35.11;29.76
54329;BME280;40710;51.120;13.136;2023-09-12T10:25:37;99034.06;;;35.36;29.94
54329;BME280;40710;51.120;13.136;2023-09-12T10:28:05;99041.34;;;35.13;30.53
54329;BME280;40710;51.120;13.136;2023-09-12T10:30:31;99030.13;;;34.93;30.22
54329;BME280;40710;51.120;13.136;2023-09-12T10:32:57;99030.63;;;34.90;30.31
54329;BME280;40710;51.120;13.136;2023-09-12T10:35:22;99021.63;;;35.67;29.96
54329;BME280;40710;51.120;13.136;2023-09-12T10:37:49;99024.38;;;35.89;30.02
54329;BME280;40710;51.120;13.136;2023-09-12T10:40:17;99023.97;;;36.03;30.48
54329;BME280;40710;51.120;13.136;2023-09-12T10:42:42;99016.78;;;36.46;29.53
54329;BME280;40710;51.120;13.136;2023-09-12T10:45:07;99015.59;;;37.01;29.02
54329;BME280;40710;51.120;13.136;2023-09-12T10:47:33;99021.16;;;35.97;29.82
54329;BME280;40710;51.120;13.136;2023-09-12T10:49:57;99009.53;;;36.94;29.23
54329;BME280;40710;51.120;13.136;2023-09-12T10:52:29;99012.31;;;36.12;29.19
54329;BME280;40710;51.120;13.136;2023-09-12T10:54:54;99009.00;;;35.83;29.93
54329;BME280;40710;51.120;13.136;2023-09-12T10:57:19;99011.34;;;35.74;30.08
54329;BME280;40710;51.120;13.136;2023-09-12T11:02:28;99018.72;;;35.74;29.74
54329;BME280;40710;51.120;13.136;2023-09-12T11:04:56;99010.44;;;36.18;29.68
54329;BME280;40710;51.120;13.136;2023-09-12T11:12:40;98997.78;;;37.52;28.04
54329;BME280;40710;51.120;13.136;2023-09-12T11:15:06;98997.91;;;36.49;28.93
54329;BME280;40710;51.120;13.136;2023-09-12T11:17:46;98989.88;;;36.10;29.30
54329;BME280;40710;51.120;13.136;2023-09-12T11:20:12;98993.84;;;36.57;28.82
54329;BME280;40710;51.120;13.136;2023-09-12T11:22:39;98999.41;;;35.81;29.10
54329;BME280;40710;51.120;13.136;2023-09-12T11:25:15;98992.31;;;37.04;28.60
54329;BME280;40710;51.120;13.136;2023-09-12T11:28:02;98991.16;;;37.37;28.14
54329;BME280;40710;51.120;13.136;2023-09-12T11:30:28;98992.28;;;37.46;28.09
54329;BME280;40710;51.120;13.136;2023-09-12T11:32:57;98979.38;;;38.36;26.56
54329;BME280;40710;51.120;13.136;2023-09-12T11:35:24;98990.75;;;36.76;28.63
54329;BME280;40710;51.120;13.136;2023-09-12T11:37:50;98993.81;;;36.47;28.38
54329;BME280;40710;51.120;13.136;2023-09-12T11:40:17;98997.59;;;36.19;29.01
54329;BME280;40710;51.120;13.136;2023-09-12T11:42:46;98989.19;;;37.91;27.01
54329;BME280;40710;51.120;13.136;2023-09-12T11:45:14;98979.16;;;38.79;26.79
54329;BME280;40710;51.120;13.136;2023-09-12T11:47:43;98985.72;;;38.83;26.46
54329;BME280;40710;51.120;13.136;2023-09-12T11:55:23;98993.50;;;34.72;30.39
54329;BME280;40710;51.120;13.136;2023-09-12T11:57:49;98988.31;;;35.09;30.33
54329;BME280;40710;51.120;13.136;2023-09-12T12:00:13;98985.13;;;34.78;32.42
54329;BME280;40710;51.120;13.136;2023-09-12T12:02:38;98975.47;;;36.47;28.57
54329;BME280;40710;51.120;13.136;2023-09-12T12:05:03;98978.56;;;37.41;29.36
54329;BME280;40710;51.120;13.136;2023-09-12T12:07:28;98966.44;;;38.06;27.72
54329;BME280;40710;51.120;13.136;2023-09-12T12:09:53;98966.09;;;37.71;28.03
54329;BME280;40710;51.120;13.136;2023-09-12T12:12:17;98971.28;;;37.15;28.25
54329;BME280;40710;51.120;13.136;2023-09-12T12:14:42;98957.19;;;38.73;26.33
54329;BME280;40710;51.120;13.136;2023-09-12T12:17:09;98968.69;;;37.35;28.18
54329;BME280;40710;51.120;13.136;2023-09-12T12:19:34;98966.97;;;37.87;28.20
54329;BME280;40710;51.120;13.136;2023-09-12T12:22:00;98949.75;;;38.48;27.17
54329;BME280;40710;51.120;13.136;2023-09-12T12:24:25;98946.19;;;38.68;26.92
54329;BME280;40710;51.120;13.136;2023-09-12T12:26:50;98962.28;;;37.82;27.29
54329;BME280;40710;51.120;13.136;2023-09-12T12:29:14;98971.03;;;36.74;29.07
54329;BME280;40710;51.120;13.136;2023-09-12T12:31:39;98965.09;;;38.08;27.43
54329;BME280;40710;51.120;13.136;2023-09-12T12:34:04;98960.69;;;38.02;26.99
54329;BME280;40710;51.120;13.136;2023-09-12T12:36:29;98956.34;;;37.38;27.94
54329;BME280;40710;51.120;13.136;2023-09-12T12:38:54;98967.47;;;37.16;28.11
54329;BME280;40710;51.120;13.136;2023-09-12T12:43:50;98984.03;;;33.59;32.34
54329;BME280;40710;51.120;13.136;2023-09-12T12:46:17;98988.81;;;34.09;32.43
54329;BME280;40710;51.120;13.136;2023-09-12T12:48:43;98969.06;;;37.12;28.21
54329;BME280;40710;51.120;13.136;2023-09-12T12:51:18;98982.28;;;34.39;30.94
54329;BME280;40710;51.120;13.136;2023-09-12T12:53:48;98993.09;;;32.47;34.26
54329;BME280;40710;51.120;13.136;2023-09-12T12:56:15;98976.34;;;34.76;31.25
54329;BME280;40710;51.120;13.136;2023-09-12T12:58:54;98974.28;;;36.11;29.35
54329;BME280;40710;51.120;13.136;2023-09-12T13:01:20;98969.19;;;37.27;28.35
54329;BME280;40710;51.120;13.136;2023-09-12T13:03:45;98956.22;;;37.70;27.34
54329;BME280;40710;51.120;13.136;2023-09-12T13:06:11;98952.22;;;38.19;26.14